NOVEMBER 7 1957
HISTORIC TORNADO OUTBREAK

AWS ID
747540
WBAN ID
13934
Name
ENGLAND AFB
Country
UNITED STATES
State
LOUISIANA

Latitude
31.317

Longitude
-92.55

Elevation
27.1 (meters)

USAF WBAN YR--MODAHRMN
GMT
DIR SPD
MPH
GUST
MPH
CLG SKC VSB
Miles
WW WW WW TEMP
°F
DEWP
°F
SLP
Mb
STP
Mb
747540 13934 195711070000 050 3 *** 5 OVC 1.0 61 45 ** 59 57 1020.7 1016.9
747540 13934 195711070100 050 6 *** 4 OVC 1.0 61 45 ** 59 57 1020.7 1016.9
747540 13934 195711070200 070 7 *** 4 OVC 0.8 61 45 ** 59 57 1020.7 1016.9
747540 13934 195711070300 090 3 *** 4 OVC 1.0 45 ** ** 59 57 1020.7 1016.9
747540 13934 195711070400 090 3 *** 4 OVC 1.0 45 ** ** 60 58 1020.7 1016.9
747540 13934 195711070500 *** 0 *** 5 OVC 1.5 45 ** ** 60 58 1020.3 1016.6
747540 13934 195711070600 *** 0 *** 5 OVC 1.5 45 ** ** 60 59 1019.6 1015.9
747540 13934 195711070700 090 5 *** 5 OVC 1.5 45 ** ** 61 59 1019.3 1015.6
747540 13934 195711070800 110 6 *** 9 OVC 1.5 45 ** ** 61 59 1017.6 1013.9
747540 13934 195711070900 110 7 *** 7 OVC 1.0 45 ** ** 61 59 1017.3 1013.5
747540 13934 195711071000 140 7 *** 5 OBS 1.0 45 ** ** 63 61 1016.3 1012.5
747540 13934 195711071100 140 9 *** 5 OBS 1.0 45 ** ** 64 63 1016.3 1012.5
747540 13934 195711071200 160 7 *** 6 OBS 1.5 45 ** ** 66 65 1015.9 1012.2
747540 13934 195711071300 140 11 *** 6 OVC 4.0 45 ** ** 69 67 1015.6 1011.9
747540 13934 195711071400 160 11 *** 7 OVC 4.0 45 ** ** 70 67 1015.6 1011.9
747540 13934 195711071500 140 15 *** 7 OVC 4.0 45 ** ** 71 67 1015.6 1011.9
747540 13934 195711071600 180 14 *** 10 OVC 4.0 61 45 ** 71 67 1015.9 1012.2
747540 13934 195711071700 180 9 *** 10 OVC 3.0 61 ** ** 70 67 1015.9 1012.2
747540 13934 195711071800 230 7 *** 8 OVC 2.0 61 45 ** 70 68 1014.6 1010.8
747540 13934 195711071900 110 14 *** 18 OVC 7.0 00 ** ** 70 63 1012.9 1009.1
747540 13934 195711072000 180 6 *** 18 OVC 7.0 61 ** ** 70 59 1011.5 1007.8
747540 13934 195711072100 180 11 *** 18 OVC 7.0 00 ** ** 72 67 1010.8 1007.1
747540 13934 195711072200 180 9 *** 30 OVC 7.0 00 ** ** 72 68 1010.2 1006.4
747540 13934 195711072300 160 14 *** 30 OVC 7.0 00 ** ** 72 69 1007.5 1004.1
747540 13934 195711080000 180 14 *** 25 OVC 7.0 63 ** ** 72 68 1009.8 1006.1
747540 13934 195711080100 180 7 *** 25 OVC 7.0 00 ** ** 71 68 1009.5 1005.8
747540 13934 195711080200 180 16 *** 20 OVC 6.0 63 ** ** 72 68 1008.1 1004.4
747540 13934 195711080300 180 25 *** 20 OVC 5.0 95 81 17 73 73 1007.1 1003.4
747540 13934 195711080400 270 11 *** 22 OVC 5.0 95 81 17 64 63 1008.8 1005.1
747540 13934 195711080500 290 11 *** 22 OVC 5.0 95 80 17 61 60 1009.5 1005.8
747540 13934 195711080600 270 9 *** 25 OVC 7.0 00 ** ** 62 60 1009.8 1006.1
747540 13934 195711080700 290 7 *** 25 OVC 15.0 00 ** ** 61 58 1011.2 1007.5
747540 13934 195711080800 *** 0 *** 722 SCT 15.0 00 ** ** 58 56 1011.5 1007.8
747540 13934 195711080900 *** 0 *** 722 SCT 15.0 00 ** ** 57 55 1012.5 1008.8
747540 13934 195711081000 250 7 *** 722 SCT 15.0 00 ** ** 56 54 1013.2 1009.5
747540 13934 195711081100 270 7 *** 722 CLR 15.0 00 ** ** 55 53 1013.9 1010.2
747540 13934 195711081200 290 8 *** 722 CLR 15.0 00 ** ** 56 54 1015.2 1011.5
747540 13934 195711081300 290 14 *** 722 SCT 15.0 00 ** ** 55 52 1016.6 1012.9
747540 13934 195711081400 320 14 *** 722 SCT 15.0 00 ** ** 56 53 1018.3 1014.6
747540 13934 195711081500 340 14 *** 722 SCT 15.0 00 ** ** 58 52 1019.0 1015.2
747540 13934 195711081600 340 16 *** 722 SCT 15.0 00 ** ** 60 51 1021.3 1017.3
747540 13934 195711081700 320 11 *** 722 SCT 15.0 00 ** ** 62 50 1021.7 1017.9
747540 13934 195711081800 320 11 *** 722 BKN 15.0 00 ** ** 64 48 1020.7 1016.9
747540 13934 195711081900 360 11 *** 722 SCT 15.0 00 ** ** 64 48 1020.3 1016.6
747540 13934 195711082000 360 13 *** 722 SCT 15.0 00 ** ** 66 47 1020.3 1016.6
747540 13934 195711082100 360 11 *** 722 SCT 15.0 00 ** ** 67 44 1021.3 1017.3
747540 13934 195711082200 360 15 *** 722 SCT 15.0 00 ** ** 66 44 1021.3 1017.3
747540 13934 195711082300 360 7 *** 722 SCT 15.0 00 ** ** 64 42 1021.7 1017.9
747540 13934 195711090000 340 6 *** 722 SCT 15.0 00 ** ** 60 43 1023.0 1019.3

  

AWS ID
722485

WBAN ID
13944

Name
BARKSDALE AFB

Country
UNITED STATES

State
LOUISIANA

Latitude
32.502

Longitude
-93.663

Elevation
50.6 (meters)

USAF

WBAN

YR--MODAHRMN

DIR

SPD

GUS

CLG

SKC

VSB

WW

WW

WW

TEMP

DEWP

SLP

STP

 

 

GMT

 

MPH

MPH

 

 

Miles

 

 

 

F

F

Mb

Mb

722485 13944 195711070000 090 2 *** 11 OVC 1.5 45 ** ** 58 56 1019.3 1012.9
722485 13944 195711070100 090 7 *** 8 OVC 4.0 45 ** ** 58 56 1019.3 1012.9
722485 13944 195711070200 110 2 *** 8 OVC 3.0 45 ** ** 58 56 1019.7 1013.2
722485 13944 195711070300 090 5 *** 5 OVC 1.5 45 ** ** 57 57 1019.3 1012.9
722485 13944 195711070400 090 5 *** 5 OVC 1.0 45 ** ** 57 57 1018.7 1012.2
722485 13944 195711070500 090 5 *** 4 OVC 0.5 45 ** ** 57 57 1018.0 1011.5
722485 13944 195711070600 090 9 *** 4 OVC 1.5 51 45 ** 57 57 1017.6 1011.2
722485 13944 195711070700 070 2 *** 4 OVC 2.0 45 ** ** 58 57 1016.9 1010.5
722485 13944 195711070800 *** 0 *** 3 OVC 2.0 45 ** ** 58 57 1016.5 1010.2
722485 13944 195711070900 *** 0 *** 1 OBS 0.2 51 45 ** 58 57 1016.2 1009.8
722485 13944 195711071000 070 2 *** 1 OBS 0.1 45 ** ** 58 58 1015.2 1008.8
722485 13944 195711071100 090 3 *** 1 OBS 0.1 45 ** ** 59 58 1014.8 1008.5
722485 13944 195711071200 110 5 *** 1 OBS 0.1 45 ** ** 60 59 1013.5 1007.1
722485 13944 195711071300 110 2 *** 1 OBS 0.1 45 ** ** 60 60 1013.1 1006.8
722485 13944 195711071400 110 3 *** 2 OBS 0.8 45 ** ** 62 62 1013.1 1006.8
722485 13944 195711071500 110 6 *** 3 OBS 1.0 45 ** ** 62 62 1012.1 1005.8
722485 13944 195711071600 140 5 *** 3 OBS 1.5 45 ** ** 65 65 1011.8 1005.4
722485 13944 195711071700 160 11 *** 4 OVC 2.0 45 ** ** 68 67 1011.1 1004.7
722485 13944 195711071800 140 15 *** 6 OVC 4.0 45 ** ** 71 69 1009.7 1003.4
722485 13944 195711071900 140 11 *** 16 OVC 8.0 00 ** ** 72 69 1008.4 1002.4
722485 13944 195711072000 140 13 *** 6 OBS 0.1 65 45 17 67 67 1007.3 1001.0
722485 13944 195711072100 180 6 *** 12 OVC 4.0 61 45 ** 70 70 1007.0 1000.7
722485 13944 195711072200 140 23 *** 12 OVC 1.0 95 81 45 69 64 1006.0 999.7
722485 13944 195711072300 140 9 *** 12 OVC 0.8 95 81 45 67 66 1006.3 1000.0
722485 13944 195711080000 250 2 *** 12 OVC 4.0 95 80 45 64 64 1007.0 1000.7
722485 13944 195711080100 180 7 *** 12 OVC 5.0 95 81 45 64 64 1006.7 1000.3
722485 13944 195711080200 270 9 *** 7 OVC 7.0 00 ** ** 64 64 1007.0 1000.7
722485 13944 195711080300 270 7 *** 7 OVC 7.0 00 ** ** 63 63 1007.3 1001.0
722485 13944 195711080400 270 9 *** 79 OVC 7.0 00 ** ** 63 62 1008.4 1002.0
722485 13944 195711080500 270 5 *** 79 OVC 7.0 00 ** ** 59 56 1008.7 1002.4
722485 13944 195711080600 *** 0 *** 79 OVC 7.0 00 ** ** 59 56 1008.0 1001.7
722485 13944 195711080700 *** 0 *** 79 BKN 8.0 00 ** ** 56 54 1009.0 1002.7
722485 13944 195711080800 *** 0 *** 722 SCT 8.0 00 ** ** 55 53 1009.4 1003.0
722485 13944 195711080900 230 9 *** 722 CLR 10.0 00 ** ** 57 53 1009.7 1003.4
722485 13944 195711081000 270 10 *** 722 CLR 10.0 00 ** ** 55 50 1011.4 1005.1
722485 13944 195711081100 270 8 *** 722 CLR 10.0 00 ** ** 53 49 1013.1 1006.8
722485 13944 195711081200 290 9 *** 722 CLR 10.0 00 ** ** 52 49 1014.8 1008.5
722485 13944 195711081300 270 5 *** 722 CLR 10.0 00 ** ** 53 48 1016.5 1010.2
722485 13944 195711081400 290 11 *** 722 SCT 10.0 00 ** ** 54 48 1017.9 1011.5
722485 13944 195711081500 290 11 *** 21 BKN 12.0 00 ** ** 55 48 1019.6 1013.2
722485 13944 195711081600 340 11 *** 722 SCT 15.0 00 ** ** 55 41 1021.7 1015.2
722485 13944 195711081700 320 16 *** 722 CLR 15.0 00 ** ** 57 41 1022.1 1015.6
722485 13944 195711081800 320 14 *** 722 CLR 15.0 00 ** ** 58 40 1022.1 1015.6
722485 13944 195711081900 320 13 *** 722 CLR 15.0 00 ** ** 59 39 1022.1 1015.6
722485 13944 195711082000 320 13 *** 722 SCT 15.0 00 ** ** 60 38 1022.1 1015.6
722485 13944 195711082100 340 9 *** 722 SCT 15.0 00 ** ** 61 35 1022.1 1015.6
722485 13944 195711082200 340 9 *** 722 SCT 15.0 00 ** ** 60 35 1022.4 1015.9
722485 13944 195711082300 340 6 *** 722 SCT 15.0 00 ** ** 57 37 1023.1 1016.6
722485 13944 195711090000 320 5 *** 722 SCT 15.0 00 ** ** 51 39 1023.1 1016.6

 

WBAN ID
12917

Name
PORT ARTHUR JEFFERSON COUNTY

Country
UNITED STATES

State
TEXAS

Latitude
29.951

Longitude
-94.021

Elevation
4.9 (meters)

WBAN

YR--MODAHRMN

DIR

SPD

GUS

CLG

SKC

VSB

WW

WW

WW

TEMP

DEWP

SLP

STP

PCP01

 

GMT

 

MPH

MPH

 

 

Miles

 

 

 

F

F

Mb

Mb

inches

12917 195711070000 023 10 *** 3 OVC 1.0 45 ** ** 63 62 1018.2 1017.6 0.00
12917 195711070100 045 10 *** 2 OVC 1.0 45 ** ** 63 63 1018.5 1017.9 0.00
12917 195711070200 023 10 *** 3 OVC 1.0 45 ** ** 64 63 1018.3 1017.6 0.02
12917 195711070300 045 9 *** 3 OVC 1.0 45 ** ** 64 63 1018.5 1017.9 0.00
12917 195711070400 068 12 *** 3 OVC 1.0 45 ** ** 65 65 1017.9 1017.3 0.00
12917 195711070500 090 9 *** 3 OVC 1.0 45 ** ** 66 66 1017.3 1016.6 0.00
12917 195711070600 090 8 *** 3 OVC 1.0 45 ** ** 67 67 1016.7 1015.9 0.00
12917 195711070700 090 9 *** 23 OVC 1.0 45 ** ** 68 68 1016.1 1015.6 0.00
12917 195711070800 113 9 *** 23 OVC 1.0 45 ** ** 68 67 1015.3 1014.6 0.00
12917 195711070900 113 10 *** 35 OVC 4.0 45 ** ** 70 69 1014.7 1013.9 0.00
12917 195711071000 135 14 *** 80 BKN 7.0 ** ** ** 71 71 1013.9 1013.2 0.00
12917 195711071100 135 15 *** 75 BKN 7.0 ** ** ** 72 71 1013.6 1012.9 0.00
12917 195711071200 158 15 *** 50 OVC 12.0 ** ** ** 73 70 1013.5 1012.9 0.00
12917 195711071300 158 14 *** 12 OVC 7.0 ** ** ** 72 71 1013.7 1012.9 0.02
12917 195711071400 180 14 *** 80 OVC 9.0 ** ** ** 71 69 1013.9 1013.2 0.01
12917 195711071500 203 12 *** 12 BKN 10.0 ** ** ** 74 71 1013.7 1012.9 0.00
12917 195711071600 180 21 *** 722 OVC 10.0 ** ** ** 77 72 1013.5 1012.9 0.00
12917 195711071700 180 24 *** 722 OVC 10.0 ** ** ** 79 73 1012.8 1012.2 0.00
12917 195711071800 180 23 *** 722 OVC 10.0 ** ** ** 79 71 1012.0 1011.2 0.00
12917 195711071900 180 29 *** 722 BKN 10.0 ** ** ** 81 72 1010.7 1010.2 0.00
12917 195711072000 180 29 *** 160 OVC 10.0 ** ** ** 78 71 1010.5 1009.8 0.00
12917 195711072100 180 20 *** 160 OVC 10.0 ** ** ** 77 71 1010.3 1009.5 0.00
12917 195711072200 180 21 *** 80 OVC 10.0 ** ** ** 77 71 1009.3 1008.8 0.00
12917 195711072300 180 26 *** 90 BKN 10.0 ** ** ** 76 71 1007.7 1007.1 0.00
12917 195711080000 158 20 *** 80 BKN 7.0 ** ** ** 75 71 1008.4 1007.8 0.00
12917 195711080100 180 22 *** 18 BKN 8.0 ** ** ** 75 71 1008.0 1007.5 0.00
12917 195711080200 180 23 *** 18 OVC 10.0 ** ** ** 75 71 1007.7 1007.1 0.00
12917 195711080300 180 29 *** 24 OVC 10.0 95 80 ** 75 71 1007.2 1006.4 0.01
12917 195711080400 315 23 *** 24 OVC 12.0 95 80 ** 63 63 1010.1 1009.5 0.55
12917 195711080500 293 9 *** 35 BKN 15.0 ** ** ** 63 61 1011.5 1010.8 0.01
12917 195711080600 293 8 *** 35 BKN 15.0 ** ** ** 62 61 1012.7 1012.2 0.00
12917 195711080700 293 8 *** 722 SCT 15.0 ** ** ** 60 60 1012.5 1011.9 0.00
12917 195711080800 248 5 *** 722 SCT 15.0 ** ** ** 59 58 1013.0 1012.2 0.00
12917 195711080900 248 8 *** 722 CLR 15.0 ** ** ** 59 58 1013.6 1012.9 0.00
12917 195711081000 293 12 *** 722 CLR 15.0 ** ** ** 59 54 1014.3 1013.5 0.00
12917 195711081100 315 12 *** 722 CLR 15.0 ** ** ** 57 52 1015.3 1014.6 0.00
12917 195711081200 315 16 *** 722 CLR 15.0 ** ** ** 55 50 1016.1 1015.6 0.00
12917 195711081300 315 14 *** 722 SCT 15.0 ** ** ** 55 49 1017.4 1016.6 0.00
12917 195711081400 338 20 *** 722 SCT 15.0 ** ** ** 55 50 1018.3 1017.6 0.00
12917 195711081500 338 26 *** 722 SCT 15.0 ** ** ** 57 50 1019.0 1018.3 0.00
12917 195711081600 360 21 *** 722 SCT 15.0 ** ** ** 59 48 1020.1 1019.3 0.00
12917 195711081700 338 20 *** 722 SCT 15.0 ** ** ** 62 49 1020.6 1020.0 0.00
12917 195711081800 338 20 *** 722 SCT 15.0 ** ** ** 63 48 1020.6 1020.0 0.00
12917 195711081900 338 9 *** 722 SCT 15.0 ** ** ** 65 47 1020.5 1020.0 0.00
12917 195711082000 360 12 *** 722 SCT 15.0 ** ** ** 65 47 1020.6 1020.0 0.00
12917 195711082100 023 9 *** 722 SCT 15.0 ** ** ** 66 47 1020.6 1020.0 0.00
12917 195711082200 338 13 *** 722 SCT 15.0 ** ** ** 67 46 1020.8 1020.0 0.00
12917 195711082300 360 10 *** 722 SCT 15.0 ** ** ** 65 48 1021.3 1020.7 0.00
12917 195711090000 338 9 *** 722 SCT 15.0 ** ** ** 62 47 1022.3 1021.7 0.00

AWS ID
722400

WBAN ID
03937

Name
LAKE CHARLES REGIONAL ARPT

Country
UNITED STATES

State
LOUISIANA

Latitude
30.125

Longitude
-93.228

Elevation
2.7 (meters)

DATE     TIME

WIND

CLG

SKC

VISIBILITY

WW

WW

WW

W

TEMP

DEWP

SEA LEVEL
PRESSURE

CST

DIR

SPEED

GUST

 

 

Miles

 

 

 

 

F

F

Mb

19571107 0000 090 6 *** 3 OVC 1.5 45 ** ** * 67 66 1017.3
19571107 0100 113 9 *** 3 OVC 1.5 45 ** ** * 68 67 1016.6
19571107 0200 113 10 *** 37 OVC 2.0 45 ** ** * 68 67 1016.3
19571107 0300 135 9 *** 79 OVC 3.0 45 ** ** * 69 68 1015.2
19571107 0400 135 14 *** 25 OVC 5.0 45 ** ** * 70 70 1014.6
19571107 0500 135 11 *** 20 OVC 7.0 00 ** ** * 70 69 1014.2
19571107 0600 158 13 *** 45 OVC 7.0 00 ** ** * 70 70 1013.9
19571107 0700 158 13 *** 59 OVC 7.0 00 ** ** * 71 70 1013.9
19571107 0800 135 13 *** 25 OVC 7.0 17 ** ** * 71 70 1013.9
19571107 0900 135 13 *** 10 OBS 2.0 95 81 17 * 71 70 1013.9
19571107 1000 158 22 *** 12 OVC 7.0 80 ** ** * 73 70 1012.5
19571107 1100 180 18 *** 13 OVC 1.0 95 81 17 * 73 71 1013.2
19571107 1200 158 17 *** 20 OVC 10.0 00 ** ** * 76 72 1012.2
19571107 1300 180 19 *** 20 OVC 10.0 00 ** ** * 77 72 1010.8
19571107 1400 180 21 *** 23 OVC 10.0 00 ** ** * 77 72 1010.2
19571107 1500 180 15 *** 15 OVC 8.0 00 ** ** * 76 70 1010.5
19571107 1600 180 16 *** 25 OVC 8.0 00 ** ** * 75 72 1009.8
19571107 1700 158 15 *** 25 OVC 8.0 00 ** ** * 73 70 1008.1
19571108 1800 158 18 *** 25 OVC 8.0 00 ** ** * 73 70 1008.1
19571108 1900 158 17 *** 79 OVC 8.0 00 ** ** * 74 70 1007.8
19571108 2000 158 17 *** 17 OVC 8.0 00 ** ** * 74 70 1007.5
19571108 2100 158 18 *** 41 OVC 8.0 00 ** ** * 74 70 1007.1
19571108 2200 203 18 *** 11 OVC 6.0 95 80 17 * 74 70 1007.1
19571108 2300 315 11 *** 11 OVC 7.0 95 80 17 * 63 61 1010.2
19571108 0000 270 5 *** 79 OVC 7.0 80 ** ** * 61 57 1011.2
19571108 0100 293 8 *** 79 BKN 10.0 00 ** ** * 62 57 1011.2
19571108 0200 293 5 *** 722 SCT 10.0 00 ** ** * 60 57 1011.2
19571108 0300 270 5 *** 722 SCT 10.0 00 ** ** * 60 56 1012.2
19571108 0400 248 6 *** 722 CLR 10.0 00 ** ** * 58 56 1012.9
19571108 0500 293 9 *** 722 CLR 10.0 00 ** ** * 60 54 1013.5
19571108 0600 293 10 *** 722 SCT 10.0 00 ** ** * 58 53 1014.2
19571108 0700 338 14 *** 722 SCT 10.0 00 ** ** * 56 51 1015.6
19571108 0800 338 17 *** 722 SCT 10.0 00 ** ** * 56 51 1016.6
19571108 0900 360 15 *** 722 SCT 10.0 00 ** ** * 58 50 1018.0
19571108 1000 338 15 *** 722 SCT 10.0 00 ** ** * 60 50 1019.0
19571108 1100 338 11 *** 722 SCT 10.0 00 ** ** * 66 48 1019.3
19571108 1200 338 9 *** 722 SCT 10.0 00 ** ** * 67 49 1019.3
19571108 1300 338 8 *** 722 SCT 10.0 00 ** ** * 66 49 1019.6
19571108 1400 360 7 *** 722 SCT 10.0 00 ** ** * 65 48 1020.0
19571109 1500 360 6 *** 722 SCT 10.0 00 ** ** * 62 48 1021.3

WBAN ID
13976

Name
LAFAYETTE REGIONAL AP

Country
UNITED STATES

State
LOUISIANA

Latitude
30.205

Longitude
-91.988

Elevation
12.8 (meters)

WBAN

YR--MODAHRMN

DIR

SPD

GUS

CLG

SKC

VSB

WW

WW

WW

TEMP

DEWP

SLP

STP

 

GMT

 

MPH

MPH

 

 

Miles

 

 

 

F

F

Mb

Mb

13976 195711070000 158 7 *** 100 BKN 6.0 04 ** ** 68 62 1019.0 1017.3
13976 195711070100 *** 0 *** 12 OVC 5.0 51 04 ** 67 62 1019.3 1017.6
13976 195711070200 *** 0 *** 22 OVC 5.0 04 ** ** 66 64 1019.6 1017.9
13976 195711070300 *** 0 *** 22 OVC 5.0 51 04 ** 66 63 1019.6 1017.9
13976 195711070400 090 9 *** 17 OVC 1.0 63 45 ** 65 63 1019.3 1017.9
13976 195711070500 *** 0 *** 13 OVC 3.0 45 ** ** 65 64 1019.0 1017.6
13976 195711070600 068 7 *** 35 OVC 1.0 45 ** ** 65 64 1018.3 1016.6
13976 195711070700 *** 0 *** 18 OVC 1.5 45 ** ** 65 64 1017.6 1015.9
13976 195711070800 135 9 *** 8 OVC 2.0 61 45 ** 67 66 1016.9 1015.2
13976 195711070900 158 14 *** 3 OVC 3.0 61 45 ** 67 66 1016.6 1014.9
13976 195711071000 135 9 *** 722 BKN 7.0 ** ** ** 68 66 1015.9 1014.2
13976 195711071100 135 9 *** 722 BKN 7.0 ** ** ** 69 67 1015.9 1014.2
13976 195711071200 135 14 *** 9 BKN 7.0 ** ** ** 69 67 1015.6 1013.9
13976 195711071300 135 9 *** 722 BKN 3.0 45 ** ** 69 66 1015.6 1013.9
13976 195711071400 158 12 *** 722 OVC 4.0 45 ** ** 70 67 1015.6 1013.9
13976 195711071500 158 14 *** 6 OVC 6.0 45 04 ** 71 68 1015.6 1013.9
13976 195711071600 158 17 *** 11 OVC 6.0 04 ** ** 73 69 1015.6 1013.9
13976 195711071700 180 23 *** 12 OVC 7.0 ** ** ** 75 69 1015.2 1013.5
13976 195711071800 180 20 *** 12 OVC 7.0 ** ** ** 78 69 1013.9 1012.5
13976 195711071900 158 17 *** 12 OVC 7.0 ** ** ** 75 68 1013.9 1012.2
13976 195711072000 180 17 *** 12 OVC 8.0 ** ** ** 78 68 1012.5 1010.8
13976 195711072100 180 23 *** 13 OVC 10.0 ** ** ** 75 68 1012.2 1010.5
13976 195711072200 180 21 *** 13 OVC 9.0 ** ** ** 75 69 1011.5 1009.8
13976 195711072300 158 14 *** 18 OVC 10.0 ** ** ** 74 68 1010.8 1009.5
13976 195711080000 158 17 *** 722 OVC 10.0 ** ** ** 73 68 1010.5 1008.8
13976 195711080100 180 17 *** 14 OVC 10.0 ** ** ** 73 69 1009.8 1008.5
13976 195711080200 180 21 *** 12 OVC 10.0 ** ** ** 72 69 1009.5 1008.1
13976 195711080300 180 23 *** 11 OVC 10.0 ** ** ** 72 69 1008.8 1007.1
13976 195711080400 180 23 *** 12 OVC 10.0 ** ** ** 73 69 1008.5 1007.1
13976 195711080500 180 29 *** 12 OVC 10.0 ** ** ** 73 69 1008.1 1006.4
13976 195711080600 293 23 *** 12 OVC 0.5 95 81 ** 74 70 1009.8 ******
13976 195711080700 068 3 *** 80 OVC 7.0 95 80 ** 57 55 1011.2 1009.5
13976 195711080800 293 3 *** 80 BKN 8.0 ** ** ** 57 56 1011.5 1009.8
13976 195711080900 203 3 *** 722 BKN 10.0 ** ** ** 55 55 1011.5 1010.2
13976 195711081000 *** 0 *** 722 SCT 10.0 ** ** ** 56 54 1012.2 1010.8
13976 195711081100 *** 0 *** 722 SCT 10.0 ** ** ** 55 53 1012.5 1011.2
13976 195711081200 225 8 *** 722 SCT 10.0 ** ** ** 55 55 1013.5 1011.9
13976 195711081300 225 12 *** 722 SCT 10.0 ** ** ** 57 55 1014.9 1013.2
13976 195711081400 270 12 *** 722 SCT 10.0 ** ** ** 59 55 1016.3 1014.6
13976 195711081500 293 7 *** 722 BKN 10.0 ** ** ** 60 53 1017.3 1015.9
13976 195711081600 338 8 *** 722 BKN 10.0 ** ** ** 63 53 1018.3 1016.6
13976 195711081700 338 8 *** 722 BKN 10.0 ** ** ** 65 55 1019.0 1017.3
13976 195711081800 338 12 *** 20 BKN 10.0 ** ** ** 66 54 1019.0 1017.3
13976 195711081900 360 5 *** 20 BKN 10.0 ** ** ** 67 52 1018.6 1016.9
13976 195711082000 023 12 *** 722 BKN 12.0 ** ** ** 70 50 1018.6 1016.9
13976 195711082100 360 14 *** 722 BKN 12.0 ** ** ** 69 50 1018.6 1017.3
13976 195711082200 338 9 *** 722 BKN 12.0 ** ** ** 65 48 1019.0 1017.3
13976 195711082300 338 9 *** 722 BKN 12.0 ** ** ** 63 50 1019.3 1017.6
13976 195711090000 360 9 *** 722 BKN 8.0 ** ** ** 61 50 1020.7 1019.0

WBAN ID
03931

Name
FORT POLK AAF

Country
UNITED STATES

State
LOUISIANA

Latitude
31.045

Longitude
-93.192

Elevation
100.6 (meters)

WBAN

YR--MODAHRMN

DIR

SPD

GUS

CLG

SKC

VSB

WW

WW

WW

TEMP

DEWP

STP

 

GMT

 

MPH

MPH

 

 

Miles

 

 

 

F

F

Mb

03931 195711071300 180 21 *** 5 OVC 5.0 45 ** ** 70 66 1002.4
03931 195711071400 180 12 *** 5 OVC 5.0 04 ** ** 70 66 1002.4
03931 195711071500 180 9 *** 5 OVC 1.0 95 81 ** 69 67 1003.0
03931 195711071600 293 9 *** 5 OVC 1.0 81 ** ** 69 67 1003.0
03931 195711071700 180 21 *** 5 OVC 3.0 63 ** ** 67 65 1003.0
03931 195711071800 180 9 *** 8 BKN 7.0 ** ** ** 68 65 1002.0
03931 195711071900 180 12 *** 12 BKN 7.0 ** ** ** 72 64 1001.0
03931 195711072000 180 12 *** 12 OVC 7.0 ** ** ** 73 64 1000.0
03931 195711072100 180 5 *** 12 OVC 7.0 ** ** ** 74 65 999.3
03931 195711072200 180 18 *** 30 BKN 7.0 ** ** ** 74 69 995.6
03931 195711081300 225 14 *** 722 SCT 8.0 ** ** ** 56 51 1005.4
03931 195711081400 315 18 *** 722 SCT 8.0 ** ** ** 57 51 1006.4
03931 195711081500 315 12 *** 722 SCT 10.0 ** ** ** 58 51 1007.5
03931 195711081600 315 10 *** 722 SCT 10.0 ** ** ** 60 51 1008.5
03931 195711081700 293 9 *** 722 SCT 10.0 ** ** ** 59 52 1008.8
03931 195711081800 315 12 *** 722 SCT 10.0 ** ** ** 60 54 1009.1
03931 195711081900 315 12 *** 722 SCT 10.0 ** ** ** 60 54 1008.5
03931 195711082000 360 9 *** 722 SCT 10.0 ** ** ** 63 52 1008.8
03931 195711082100 315 12 *** 722 SCT 10.0 ** ** ** 64 52 1008.8
03931 195711082200 315 12 *** 722 SCT 10.0 ** ** ** 64 52 1009.5

WBAN ID
13957

Name
SHREVEPORT REGIONAL ARPT

Country
UNITED STATES

State
LOUISIANA

Latitude
32.447

Longitude
-93.824

Elevation
78.9 (meters)

WBAN

YR--MODAHRMN

DIR

SPD

GUS

CLG

SKC

VSB

WW

WW

WW

TEMP

DEWP

SLP

STP

 

GMT

 

MPH

MPH

 

 

Miles

 

 

 

F

F

Mb

Mb

13957 195711070000 113 8 *** 6 OVC 4.0 45 ** ** 57 54 1019.1 1009.8
13957 195711070100 113 9 *** 6 OVC 3.0 45 ** ** 57 54 1019.1 1009.8
13957 195711070200 135 8 *** 6 OVC 3.0 45 ** ** 57 54 1018.9 1009.8
13957 195711070300 113 13 *** 6 OVC 3.0 45 ** ** 57 54 1018.6 1009.5
13957 195711070400 135 14 *** 4 OVC 2.5 45 ** ** 57 55 1017.9 1008.8
13957 195711070500 113 12 *** 3 OVC 1.0 45 ** ** 57 55 1017.0 1007.8
13957 195711070600 113 14 *** 2 OVC 1.0 61 45 ** 57 56 1016.4 1007.1
13957 195711070700 113 9 *** 2 OVC 2.0 51 45 ** 57 56 1015.3 1006.1
13957 195711070800 113 3 *** 2 OVC 1.0 45 ** ** 57 57 1015.6 1006.4
13957 195711070900 *** 0 *** 1 OVC 0.2 45 ** ** 58 57 1015.0 1005.8
13957 195711071000 113 6 *** 1 OVC 0.2 45 ** ** 58 57 1013.0 1004.7
13957 195711071100 113 6 *** 1 OVC 0.2 51 45 ** 58 57 1012.6 1004.4
13957 195711071200 113 7 *** 1 OVC 0.1 45 ** ** 59 59 1013.0 1003.7
13957 195711071300 135 8 *** 1 OVC 0.1 45 ** ** 60 59 1013.0 1003.7
13957 195711071400 135 8 *** 3 OVC 0.5 51 45 ** 61 60 1013.0 1003.7
13957 195711071500 135 12 *** 1 OVC 0.2 95 80 45 61 61 1011.6 1002.4
13957 195711071600 158 9 *** 2 OVC 1.0 80 45 ** 63 63 1011.3 1002.0
13957 195711071700 158 16 *** 6 OVC 4.0 45 ** ** 67 66 1009.8 1000.7
13957 195711071800 158 17 *** 15 OVC 8.0 ** ** ** 70 69 1008.9 999.7
13957 195711071900 158 21 *** 20 OVC 8.0 ** ** ** 72 67 1007.7 998.6
13957 195711072000 203 16 *** 21 OVC 8.0 18 ** ** 69 67 1006.5 997.3
13957 195711072100 180 12 *** 30 OVC 10.0 ** ** ** 70 68 1005.8 996.6
13957 195711072200 180 23 *** 11 OVC 8.0 95 81 ** 70 67 1005.1 995.9
13957 195711072300 293 14 *** 14 OVC 1.0 95 81 ** 64 63 1006.1 997.0
13957 195711080000 180 6 *** 28 OVC 3.0 95 80 ** 63 62 1006.7 997.6
13957 195711080100 180 10 *** 24 OVC 5.0 95 80 ** 62 62 1006.7 997.6
13957 195711080200 293 13 *** 8 OVC 15.0 ** ** ** 61 59 1006.7 997.6
13957 195711080300 293 14 *** 722 BKN 15.0 ** ** ** 59 56 1006.7 997.6
13957 195711080400 293 12 *** 100 OVC 15.0 ** ** ** 58 55 1007.9 998.6
13957 195711080500 270 10 *** 722 BKN 15.0 ** ** ** 57 54 1008.5 999.3
13957 195711080600 225 8 *** 120 OVC 15.0 ** ** ** 56 54 1007.9 998.6
13957 195711080700 248 8 *** 722 SCT 15.0 ** ** ** 55 52 1008.5 999.3
13957 195711080800 248 9 *** 722 CLR 15.0 ** ** ** 54 52 1009.2 1000.0
13957 195711080900 270 12 *** 722 CLR 15.0 ** ** ** 54 51 1010.2 1001.0
13957 195711081000 293 13 *** 722 CLR 15.0 ** ** ** 53 49 1011.6 1002.4
13957 195711081100 293 14 *** 722 CLR 15.0 ** ** ** 52 48 1013.0 1003.7
13957 195711081200 293 14 *** 722 CLR 15.0 ** ** ** 51 48 1014.5 1005.4
13957 195711081300 293 12 *** 722 CLR 15.0 ** ** ** 50 48 1016.0 1006.8
13957 195711081400 293 16 *** 722 SCT 15.0 ** ** ** 52 48 1017.0 1007.8
13957 195711081500 315 15 *** 19 BKN 15.0 ** ** ** 53 44 1018.9 1009.8
13957 195711081600 315 15 *** 722 SCT 15.0 ** ** ** 55 40 1020.6 1011.5
13957 195711081700 315 12 *** 722 CLR 15.0 ** ** ** 56 38 1021.3 1012.2
13957 195711081800 338 10 *** 722 CLR 15.0 ** ** ** 57 37 1021.5 1012.2
13957 195711081900 338 15 *** 722 CLR 15.0 ** ** ** 59 36 1021.5 1012.2
13957 195711082000 338 14 *** 722 CLR 15.0 ** ** ** 61 34 1021.5 1012.2
13957 195711082100 360 13 *** 722 CLR 15.0 ** ** ** 60 33 1021.7 1012.5
13957 195711082200 338 12 *** 722 CLR 15.0 ** ** ** 61 32 1022.0 1012.9
13957 195711082300 360 8 *** 722 CLR 15.0 ** ** ** 57 33 1022.5 1013.2
13957 195711090000 338 7 *** 722 CLR 15.0 ** ** ** 53 37 1023.4 1013.9


USA.gov is the U.S. government's official web portal to all federal, state and local government web resources and services.